Sylvan Lake, Canada
Current Conditions -  °F | °C
As of 4:00 PM on Saturday 22 Nov 2014 (Local Time) from CYQF Reporting Station
Overcast Overcast  
Wind Chill: 24°   Ceiling: 10000
Heat Index: 34°   Visibility: 15mi
Dew Point: 28°   Wind: 15mph
Humidity: 81%   Direction: 350°N
Pressure: 29.33"   Gusts: 22mph
Location:  52.31°N, 114.09°W
Report Text: CYQF 222300Z 35013G19KT 15SM SCT015 OVC100 01/M02 A2933 RMK SF4AC4 SLP965
Loading
Personal Weather Stations






























Interactive Weather Map New forecast layout! Learn more

10-Day Weather Forecast

Advertisements
Track Severe Weather on mobile